Terminal Aerodrome Forecast
Issued by NWS

Home | Current Version | Previous Version | Text Only | Print | Product List | Glossary On
Versions: 1 2 3 4 5 6 7 8 9 10 11 12 13 14 15 16
230
FTUS44 KTSA 211120
TAFFYV
TAF
KFYV 211120Z 2112/2212 00000KT 1SM BR OVC002
     FM211400 30004KT P6SM BKN015
     FM211600 30006KT P6SM SCT025 SCT250
     FM220600 00000KT 2SM BR SCT003
     FM220900 00000KT 1/2SM FG VV002=

USA.gov is the U.S. government's official web portal to all federal, state and local government web resources and services.